createdAt,value
2018-08-06T00:02:17.432Z,19.20
2018-08-06T00:04:45.629Z,19.20
2018-08-06T00:07:14.006Z,19.20
2018-08-06T00:09:42.229Z,19.20
2018-08-06T00:12:10.429Z,19.10
2018-08-06T00:14:38.881Z,19.10
2018-08-06T00:17:07.296Z,18.90
2018-08-06T00:19:35.541Z,18.70
2018-08-06T00:22:03.741Z,18.70
2018-08-06T00:24:31.936Z,18.70
2018-08-06T00:27:00.396Z,18.70
2018-08-06T00:29:28.681Z,18.60
2018-08-06T00:31:56.805Z,18.60
2018-08-06T00:34:25.070Z,18.60
2018-08-06T00:36:53.220Z,18.60
2018-08-06T00:39:21.417Z,18.30
2018-08-06T00:41:49.648Z,18.30
2018-08-06T00:44:17.834Z,18.20
2018-08-06T00:46:46.062Z,18.10
2018-08-06T00:49:14.288Z,18.10
2018-08-06T00:51:42.492Z,18.00
2018-08-06T00:54:10.706Z,18.00
2018-08-06T00:56:38.909Z,18.10
2018-08-06T00:59:07.104Z,18.00
2018-08-06T01:01:35.343Z,18.10
2018-08-06T01:04:03.585Z,18.10
2018-08-06T01:06:31.788Z,18.10
2018-08-06T01:08:59.985Z,18.00
2018-08-06T01:11:28.233Z,17.90
2018-08-06T01:13:56.497Z,17.90
2018-08-06T01:16:24.705Z,17.80
2018-08-06T01:18:52.981Z,17.70
2018-08-06T01:21:21.168Z,17.80
2018-08-06T01:23:49.414Z,17.70
2018-08-06T01:26:17.641Z,17.70
2018-08-06T01:28:45.869Z,17.70
2018-08-06T01:31:14.066Z,17.70
2018-08-06T01:33:42.258Z,17.70
2018-08-06T01:36:10.487Z,17.60
2018-08-06T01:38:38.690Z,17.70
2018-08-06T01:41:07.176Z,17.70
2018-08-06T01:43:35.376Z,17.60
2018-08-06T01:46:03.605Z,17.60
2018-08-06T01:48:31.808Z,17.60
2018-08-06T01:51:00.049Z,17.60
2018-08-06T01:53:28.311Z,17.50
2018-08-06T01:55:57.013Z,17.50
2018-08-06T01:58:25.225Z,17.50
2018-08-06T02:00:53.813Z,17.50
2018-08-06T02:03:22.054Z,17.40
2018-08-06T02:05:50.292Z,17.40
2018-08-06T02:08:18.492Z,17.30
2018-08-06T02:10:46.713Z,17.40
2018-08-06T02:13:14.884Z,17.30
2018-08-06T02:15:43.073Z,17.40
2018-08-06T02:18:11.313Z,17.40
2018-08-06T02:20:39.571Z,17.40
2018-08-06T02:23:07.771Z,17.40
2018-08-06T02:25:35.994Z,17.30
2018-08-06T02:28:04.369Z,17.20
2018-08-06T02:30:32.566Z,17.20
2018-08-06T02:33:00.773Z,17.20
2018-08-06T02:35:29.006Z,17.20
2018-08-06T02:37:57.180Z,17.10
2018-08-06T02:40:25.386Z,17.00
2018-08-06T02:42:53.641Z,17.00
2018-08-06T02:45:21.830Z,16.90
2018-08-06T02:47:50.090Z,16.90
2018-08-06T02:50:18.319Z,16.90
2018-08-06T02:52:46.547Z,16.90
2018-08-06T02:55:15.811Z,16.80
2018-08-06T02:57:44.424Z,16.60
2018-08-06T03:00:14.464Z,16.70
2018-08-06T03:02:43.917Z,16.70
2018-08-06T03:05:13.804Z,16.70
2018-08-06T03:07:43.115Z,16.70
2018-08-06T03:10:11.523Z,16.70
2018-08-06T03:12:39.707Z,16.70
2018-08-06T03:15:09.060Z,16.80
2018-08-06T03:17:37.615Z,16.70
2018-08-06T03:20:07.028Z,16.70
2018-08-06T03:22:35.685Z,16.70
2018-08-06T03:25:04.528Z,16.70
2018-08-06T03:27:32.745Z,16.70
2018-08-06T03:30:00.940Z,16.70
2018-08-06T03:32:29.200Z,16.70
2018-08-06T03:34:57.473Z,16.60
2018-08-06T03:37:25.711Z,16.70
2018-08-06T03:39:54.008Z,16.60
2018-08-06T03:42:22.488Z,16.40
2018-08-06T03:44:50.686Z,16.40
2018-08-06T03:47:18.892Z,16.30
2018-08-06T03:49:47.136Z,16.30
2018-08-06T03:52:15.405Z,16.30
2018-08-06T03:54:43.601Z,16.30
2018-08-06T03:57:11.849Z,16.20
2018-08-06T03:59:40.049Z,16.20
2018-08-06T04:02:08.341Z,16.20
2018-08-06T04:04:36.584Z,16.20
2018-08-06T04:07:04.853Z,16.20
2018-08-06T04:09:33.253Z,16.20
2018-08-06T04:12:01.439Z,16.10
2018-08-06T04:14:29.633Z,16.20
2018-08-06T04:16:57.826Z,16.20
2018-08-06T04:19:26.046Z,16.30
2018-08-06T04:21:54.299Z,16.40
2018-08-06T04:24:22.498Z,16.40
2018-08-06T04:26:50.692Z,16.50
2018-08-06T04:29:18.917Z,16.50
2018-08-06T04:31:47.218Z,16.50
2018-08-06T04:34:15.400Z,16.50
2018-08-06T04:36:43.599Z,16.50
2018-08-06T04:39:11.850Z,16.60
2018-08-06T04:41:40.037Z,16.50
2018-08-06T04:44:08.267Z,16.50
2018-08-06T04:46:36.488Z,16.50
2018-08-06T04:49:05.296Z,16.30
2018-08-06T04:51:33.480Z,16.40
2018-08-06T04:54:01.708Z,16.40
2018-08-06T04:56:29.921Z,16.50
2018-08-06T04:58:58.152Z,16.50
2018-08-06T05:01:26.344Z,16.40
2018-08-06T05:03:54.572Z,16.40
2018-08-06T05:06:22.809Z,16.30
2018-08-06T05:08:50.992Z,16.20
2018-08-06T05:11:19.230Z,16.10
2018-08-06T05:13:47.512Z,16.00
2018-08-06T05:16:15.760Z,16.10
2018-08-06T05:18:43.956Z,16.10
2018-08-06T05:21:12.364Z,16.10
2018-08-06T05:23:56.915Z,16.20
2018-08-06T05:26:26.047Z,16.10
2018-08-06T05:28:54.428Z,16.20
2018-08-06T05:31:24.109Z,16.20
2018-08-06T05:33:52.854Z,16.40
2018-08-06T05:36:22.407Z,16.50
2018-08-06T05:38:51.598Z,16.70
2018-08-06T05:41:20.331Z,16.70
2018-08-06T05:43:48.530Z,16.70
2018-08-06T05:46:16.764Z,16.80
2018-08-06T05:48:45.356Z,16.90
2018-08-06T05:51:13.581Z,16.90
2018-08-06T05:53:42.447Z,17.00
2018-08-06T05:56:11.323Z,17.10
2018-08-06T05:58:40.560Z,17.10
2018-08-06T06:01:08.796Z,17.20
2018-08-06T06:03:37.017Z,17.30
2018-08-06T06:06:06.838Z,17.40
2018-08-06T06:08:35.224Z,17.60
2018-08-06T06:11:03.516Z,17.70
2018-08-06T06:13:31.772Z,17.80
2018-08-06T06:15:59.995Z,17.90
2018-08-06T06:18:28.212Z,18.00
2018-08-06T06:20:56.455Z,18.20
2018-08-06T06:23:24.656Z,18.30
2018-08-06T06:25:52.961Z,18.30
2018-08-06T06:28:21.230Z,18.50
2018-08-06T06:30:49.460Z,18.70
2018-08-06T06:33:17.742Z,18.70
2018-08-06T06:35:45.964Z,18.90
2018-08-06T06:38:14.403Z,19.00
2018-08-06T06:40:42.644Z,19.20
2018-08-06T06:43:11.121Z,19.40
2018-08-06T06:45:39.352Z,19.50
2018-08-06T06:48:07.582Z,19.70
2018-08-06T06:50:35.783Z,19.70
2018-08-06T06:53:04.245Z,20.00
2018-08-06T06:58:00.584Z,20.30
2018-08-06T07:00:28.809Z,20.50
2018-08-06T07:05:24.967Z,20.90
2018-08-06T07:07:53.160Z,21.10
2018-08-06T07:10:21.401Z,21.30
2018-08-06T07:12:49.640Z,21.50
2018-08-06T07:15:17.994Z,21.70
2018-08-06T07:17:47.856Z,22.00
2018-08-06T07:20:17.794Z,22.20
2018-08-06T07:22:45.907Z,22.40
2018-08-06T07:25:14.123Z,22.70
2018-08-06T07:27:43.015Z,22.90
2018-08-06T07:30:12.761Z,23.20
2018-08-06T07:32:41.861Z,23.60
2018-08-06T07:35:11.089Z,23.90
2018-08-06T07:37:39.507Z,24.50
2018-08-06T07:40:09.709Z,29.60
2018-08-06T07:42:38.015Z,32.40
2018-08-06T07:50:03.637Z,42.10
2018-08-06T07:52:31.861Z,42.30
2018-08-06T07:55:00.075Z,42.30
2018-08-06T07:57:28.298Z,42.70
2018-08-06T07:59:56.479Z,40.40
2018-08-06T08:02:24.716Z,41.80
2018-08-06T08:04:52.941Z,40.50
2018-08-06T08:07:21.177Z,42.60
2018-08-06T08:09:49.410Z,45.40
2018-08-06T08:12:17.657Z,48.20
2018-08-06T08:14:45.845Z,48.10
2018-08-06T08:17:16.140Z,50.20
2018-08-06T08:19:44.396Z,50.20
2018-08-06T08:22:12.556Z,51.40
2018-08-06T08:24:40.773Z,48.10
2018-08-06T08:27:08.992Z,45.50
2018-08-06T08:29:37.186Z,45.20
2018-08-06T08:32:05.422Z,48.90
2018-08-06T08:34:33.644Z,50.90
2018-08-06T08:37:02.027Z,52.10
2018-08-06T08:39:30.305Z,49.60
2018-08-06T08:41:58.476Z,48.00
2018-08-06T08:44:26.683Z,50.30
2018-08-06T08:46:54.856Z,46.60
2018-08-06T08:49:23.061Z,47.00
2018-08-06T08:51:51.308Z,50.60
2018-08-06T08:54:19.747Z,52.70
2018-08-06T08:56:47.995Z,52.30
2018-08-06T08:59:16.282Z,48.40
2018-08-06T09:01:44.530Z,51.20
2018-08-06T09:04:12.716Z,48.70
2018-08-06T09:06:40.912Z,43.90
2018-08-06T09:09:10.954Z,46.80
2018-08-06T09:11:39.193Z,45.80
2018-08-06T09:14:07.432Z,49.20
2018-08-06T09:16:36.384Z,52.10
2018-08-06T09:19:04.605Z,53.10
2018-08-06T09:21:32.858Z,55.50
2018-08-06T09:24:01.091Z,53.60
2018-08-06T09:26:29.270Z,53.80
2018-08-06T09:28:57.504Z,54.30
2018-08-06T09:31:25.741Z,51.90
2018-08-06T09:33:54.020Z,54.50
2018-08-06T09:36:22.280Z,54.70
2018-08-06T09:38:50.568Z,57.60
2018-08-06T09:41:18.773Z,57.50
2018-08-06T09:43:47.009Z,57.70
2018-08-06T09:46:15.240Z,56.40
2018-08-06T09:48:43.551Z,58.30
2018-08-06T09:51:11.676Z,58.80
2018-08-06T09:53:39.904Z,57.00
2018-08-06T09:56:08.111Z,56.00
2018-08-06T10:02:11.385Z,56.00
2018-08-06T10:04:39.649Z,52.30
2018-08-06T10:07:07.868Z,53.40
2018-08-06T10:09:36.113Z,52.30
2018-08-06T10:12:05.413Z,53.90
2018-08-06T10:14:33.558Z,57.10
2018-08-06T10:17:01.792Z,54.00
2018-08-06T10:19:30.038Z,51.00
2018-08-06T10:21:58.264Z,54.20
2018-08-06T10:24:26.546Z,56.50
2018-08-06T10:26:54.756Z,56.80
2018-08-06T10:29:22.939Z,55.00
2018-08-06T10:31:51.186Z,54.20
2018-08-06T10:34:19.401Z,53.90
2018-08-06T10:36:47.577Z,50.10
2018-08-06T10:39:15.859Z,51.00
2018-08-06T10:41:44.070Z,48.60
2018-08-06T10:44:12.280Z,48.70
2018-08-06T10:46:40.507Z,50.00
2018-08-06T10:49:08.767Z,50.60
2018-08-06T10:51:37.054Z,47.20
2018-08-06T10:54:05.291Z,49.80
2018-08-06T10:56:33.502Z,52.40
2018-08-06T10:59:01.756Z,51.40
2018-08-06T11:01:30.476Z,49.40
2018-08-06T11:03:58.724Z,47.00
2018-08-06T11:06:33.435Z,45.20
2018-08-06T11:09:01.615Z,42.00
2018-08-06T11:11:31.923Z,40.50
2018-08-06T11:14:00.160Z,40.40
2018-08-06T11:16:28.508Z,39.90
2018-08-06T11:18:57.241Z,39.00
2018-08-06T11:21:25.473Z,38.00
2018-08-06T11:23:53.742Z,36.10
2018-08-06T11:26:22.005Z,36.10
2018-08-06T11:28:50.284Z,36.70
2018-08-06T11:31:18.493Z,37.20
2018-08-06T11:33:46.776Z,38.50
2018-08-06T11:36:15.009Z,40.80
2018-08-06T11:38:43.306Z,42.80
2018-08-06T11:41:11.505Z,43.10
2018-08-06T11:43:39.717Z,41.70
2018-08-06T11:46:07.950Z,39.80
2018-08-06T11:48:36.216Z,39.10
2018-08-06T11:51:04.502Z,38.70
2018-08-06T11:53:32.733Z,37.80
2018-08-06T11:56:00.948Z,37.50
2018-08-06T11:58:29.183Z,37.10
2018-08-06T12:00:57.388Z,37.10
2018-08-06T12:03:25.604Z,37.10
2018-08-06T12:05:53.851Z,37.10
2018-08-06T12:08:22.113Z,37.40
2018-08-06T12:10:50.356Z,37.60
2018-08-06T12:13:18.568Z,37.80
2018-08-06T12:15:46.966Z,36.80
2018-08-06T12:18:15.204Z,36.10
2018-08-06T12:20:43.467Z,36.20
2018-08-06T12:23:11.657Z,36.10
2018-08-06T12:25:39.892Z,36.50
2018-08-06T12:28:08.172Z,37.00
2018-08-06T12:30:36.398Z,36.90
2018-08-06T12:33:04.718Z,37.00
2018-08-06T12:35:32.938Z,37.10
2018-08-06T12:38:01.185Z,37.00
2018-08-06T12:40:29.492Z,37.20
2018-08-06T12:45:25.698Z,37.30
2018-08-06T12:47:53.898Z,37.20
2018-08-06T12:50:22.131Z,36.40
2018-08-06T12:52:50.675Z,36.60
2018-08-06T12:55:19.392Z,36.70
2018-08-06T12:57:47.691Z,36.40
2018-08-06T13:00:23.906Z,36.70
2018-08-06T13:02:52.604Z,36.80
2018-08-06T13:05:21.372Z,36.90
2018-08-06T13:07:49.720Z,36.70
2018-08-06T13:10:17.979Z,36.70
2018-08-06T13:12:46.188Z,36.80
2018-08-06T13:15:15.252Z,37.10
2018-08-06T13:17:43.493Z,37.20
2018-08-06T13:20:11.782Z,37.30
2018-08-06T13:22:40.027Z,37.10
2018-08-06T13:25:10.046Z,36.00
2018-08-06T13:27:38.236Z,35.40
2018-08-06T13:30:10.344Z,35.40
2018-08-06T13:32:38.571Z,35.00
2018-08-06T13:35:06.790Z,35.50
2018-08-06T13:37:35.158Z,35.20
2018-08-06T13:40:03.409Z,35.70
2018-08-06T13:42:31.652Z,35.90
2018-08-06T13:44:59.920Z,36.30
2018-08-06T13:47:28.135Z,36.70
2018-08-06T13:49:56.337Z,36.70
2018-08-06T13:52:24.591Z,36.60
2018-08-06T13:54:52.817Z,36.20
2018-08-06T13:57:21.023Z,36.00
2018-08-06T13:59:49.284Z,35.70
2018-08-06T14:02:17.868Z,36.10
2018-08-06T14:04:46.133Z,36.40
2018-08-06T14:07:14.374Z,36.00
2018-08-06T14:09:42.600Z,35.90
2018-08-06T14:12:10.790Z,35.70
2018-08-06T14:14:38.997Z,35.70
2018-08-06T14:17:07.219Z,35.50
2018-08-06T14:19:35.416Z,35.90
2018-08-06T14:22:03.760Z,35.80
2018-08-06T14:24:31.959Z,35.30
2018-08-06T14:27:00.154Z,35.70
2018-08-06T14:29:28.372Z,35.60
2018-08-06T14:31:56.558Z,35.40
2018-08-06T14:34:24.854Z,35.20
2018-08-06T14:36:53.131Z,34.90
2018-08-06T14:41:49.258Z,34.70
2018-08-06T14:46:45.429Z,35.50
2018-08-06T14:49:13.687Z,35.50
2018-08-06T14:51:41.898Z,35.50
2018-08-06T14:54:10.066Z,35.50
2018-08-06T14:56:38.393Z,35.80
2018-08-06T14:59:06.669Z,36.00
2018-08-06T15:01:34.872Z,35.70
2018-08-06T15:04:03.094Z,35.70
2018-08-06T15:06:31.317Z,35.70
2018-08-06T15:08:59.549Z,36.10
2018-08-06T15:11:27.742Z,35.90
2018-08-06T15:13:55.932Z,36.10
2018-08-06T15:16:24.154Z,36.30
2018-08-06T15:18:52.460Z,36.20
2018-08-06T15:21:20.648Z,36.20
2018-08-06T15:23:48.851Z,36.20
2018-08-06T15:26:17.054Z,36.20
2018-08-06T15:28:45.259Z,35.80
2018-08-06T15:31:13.760Z,35.60
2018-08-06T15:33:41.969Z,35.60
2018-08-06T15:36:10.175Z,35.70
2018-08-06T15:38:38.369Z,35.80
2018-08-06T15:41:07.311Z,35.90
2018-08-06T15:43:35.608Z,35.90
2018-08-06T15:46:03.720Z,35.80
2018-08-06T15:48:31.933Z,35.80
2018-08-06T15:51:00.154Z,35.70
2018-08-06T15:53:28.352Z,35.60
2018-08-06T15:55:56.652Z,35.70
2018-08-06T15:58:24.860Z,35.70
2018-08-06T16:00:53.136Z,35.70
2018-08-06T16:03:21.414Z,35.60
2018-08-06T16:05:49.546Z,35.60
2018-08-06T16:08:17.777Z,35.60
2018-08-06T16:10:45.968Z,35.40
2018-08-06T16:13:14.173Z,35.40
2018-08-06T16:15:42.377Z,35.30
2018-08-06T16:18:10.640Z,35.30
2018-08-06T16:20:38.833Z,35.20
2018-08-06T16:23:07.464Z,35.20
2018-08-06T16:25:35.697Z,35.00
2018-08-06T16:28:03.941Z,34.80
2018-08-06T16:33:00.145Z,34.70
2018-08-06T16:35:28.394Z,34.70
2018-08-06T16:37:57.087Z,34.60
2018-08-06T16:40:25.289Z,34.50
2018-08-06T16:42:53.561Z,34.60
2018-08-06T16:45:21.778Z,34.50
2018-08-06T16:47:50.076Z,34.50
2018-08-06T16:50:18.771Z,34.40
2018-08-06T16:52:47.192Z,34.30
2018-08-06T16:55:15.578Z,34.20
2018-08-06T16:57:43.796Z,34.10
2018-08-06T17:00:16.606Z,34.10
2018-08-06T17:02:44.904Z,34.10
2018-08-06T17:05:13.762Z,34.00
2018-08-06T17:07:43.074Z,33.90
2018-08-06T17:10:13.635Z,33.80
2018-08-06T17:12:42.978Z,33.60
2018-08-06T17:15:12.528Z,33.50
2018-08-06T17:17:41.002Z,33.30
2018-08-06T17:20:12.382Z,33.30
2018-08-06T17:22:40.637Z,33.20
2018-08-06T17:25:10.037Z,33.10
2018-08-06T17:27:38.644Z,33.20
2018-08-06T17:30:07.172Z,33.10
2018-08-06T17:32:36.234Z,33.10
2018-08-06T17:35:04.583Z,33.10
2018-08-06T17:37:32.806Z,33.00
2018-08-06T17:40:01.760Z,32.90
2018-08-06T17:42:30.423Z,32.90
2018-08-06T17:45:02.160Z,32.80
2018-08-06T17:47:30.385Z,32.70
2018-08-06T17:49:59.605Z,32.60
2018-08-06T17:55:02.272Z,32.40
2018-08-06T17:57:30.487Z,32.20
2018-08-06T18:02:26.728Z,32.10
2018-08-06T18:04:55.060Z,31.90
2018-08-06T18:07:23.269Z,31.80
2018-08-06T18:09:51.483Z,31.80
2018-08-06T18:12:19.703Z,31.80
2018-08-06T18:14:47.908Z,31.70
2018-08-06T18:17:16.078Z,31.60
2018-08-06T18:19:44.361Z,31.50
2018-08-06T18:22:12.561Z,31.40
2018-08-06T18:24:40.749Z,31.30
2018-08-06T18:27:09.024Z,31.20
2018-08-06T18:29:37.238Z,31.10
2018-08-06T18:32:05.485Z,31.00
2018-08-06T18:34:33.681Z,30.90
2018-08-06T18:37:01.926Z,30.80
2018-08-06T18:39:30.284Z,30.70
2018-08-06T18:42:04.827Z,30.60
2018-08-06T18:44:33.041Z,30.40
2018-08-06T18:47:01.254Z,30.20
2018-08-06T18:49:29.490Z,30.10
2018-08-06T18:51:57.723Z,30.00
2018-08-06T18:54:25.894Z,30.00
2018-08-06T18:56:54.090Z,29.70
2018-08-06T18:59:22.339Z,29.60
2018-08-06T19:01:50.553Z,29.40
2018-08-06T19:04:18.776Z,29.20
2018-08-06T19:06:46.962Z,29.00
2018-08-06T19:09:18.248Z,28.90
2018-08-06T19:11:47.017Z,28.90
2018-08-06T19:14:19.864Z,28.60
2018-08-06T19:16:49.327Z,28.60
2018-08-06T19:19:23.013Z,28.50
2018-08-06T19:21:52.416Z,28.40
2018-08-06T19:24:26.066Z,28.30
2018-08-06T19:26:54.328Z,28.20
2018-08-06T19:29:22.890Z,28.00
2018-08-06T19:31:51.148Z,27.90
2018-08-06T19:34:19.436Z,27.80
2018-08-06T19:36:53.095Z,27.80
2018-08-06T19:39:21.361Z,27.80
2018-08-06T19:41:49.785Z,27.60
2018-08-06T19:44:17.980Z,27.40
2018-08-06T19:46:47.054Z,27.20
2018-08-06T19:49:20.659Z,27.20
2018-08-06T19:51:48.882Z,27.10
2018-08-06T19:54:17.286Z,27.10
2018-08-06T19:56:46.527Z,27.10
2018-08-06T19:59:14.882Z,27.00
2018-08-06T20:01:43.062Z,26.80
2018-08-06T20:04:11.487Z,26.70
2018-08-06T20:06:39.775Z,26.70
2018-08-06T20:09:10.469Z,26.60
2018-08-06T20:11:39.050Z,26.50
2018-08-06T20:14:07.840Z,26.50
2018-08-06T20:16:36.276Z,26.50
2018-08-06T20:19:04.541Z,26.40
2018-08-06T20:21:32.912Z,26.30
2018-08-06T20:24:01.377Z,26.20
2018-08-06T20:26:29.600Z,26.20
2018-08-06T20:28:57.865Z,26.10
2018-08-06T20:31:26.791Z,26.00
2018-08-06T20:33:54.997Z,25.90
2018-08-06T20:36:23.353Z,25.80
2018-08-06T20:38:51.608Z,25.70
2018-08-06T20:41:19.880Z,25.60
2018-08-06T20:43:48.196Z,25.50
2018-08-06T20:46:17.250Z,25.40
2018-08-06T20:48:46.045Z,25.40
2018-08-06T20:51:14.191Z,25.40
2018-08-06T20:53:42.390Z,25.30
2018-08-06T20:58:39.625Z,25.30
2018-08-06T21:01:08.676Z,25.10
2018-08-06T21:03:38.000Z,25.10
2018-08-06T21:06:06.451Z,25.00
2018-08-06T21:08:34.905Z,24.80
2018-08-06T21:11:03.567Z,24.80
2018-08-06T21:13:31.816Z,24.70
2018-08-06T21:16:00.047Z,24.70
2018-08-06T21:18:28.352Z,24.70
2018-08-06T21:20:56.595Z,24.60
2018-08-06T21:23:24.844Z,24.60
2018-08-06T21:25:53.834Z,24.50
2018-08-06T21:28:22.200Z,24.50
2018-08-06T21:30:50.481Z,24.30
2018-08-06T21:33:18.761Z,24.30
2018-08-06T21:35:47.005Z,24.40
2018-08-06T21:38:15.213Z,24.50
2018-08-06T21:40:43.491Z,24.40
2018-08-06T21:43:11.686Z,24.50
2018-08-06T21:45:39.934Z,24.40
2018-08-06T21:48:08.180Z,24.20
2018-08-06T21:50:36.437Z,24.10
2018-08-06T21:53:04.656Z,23.90
2018-08-06T21:55:32.893Z,23.80
2018-08-06T21:58:01.120Z,23.70
2018-08-06T22:00:33.962Z,23.70
2018-08-06T22:03:03.599Z,23.70
2018-08-06T22:05:31.969Z,23.70
2018-08-06T22:08:00.184Z,23.60
2018-08-06T22:10:28.422Z,23.60
2018-08-06T22:12:56.651Z,23.60
2018-08-06T22:15:24.902Z,23.60
2018-08-06T22:17:53.242Z,23.60
2018-08-06T22:20:21.514Z,23.60
2018-08-06T22:22:49.745Z,23.60
2018-08-06T22:25:18.025Z,23.40
2018-08-06T22:27:46.274Z,23.30
2018-08-06T22:30:14.503Z,23.20
2018-08-06T22:32:42.728Z,23.20
2018-08-06T22:35:12.210Z,23.10
2018-08-06T22:37:40.897Z,23.10
2018-08-06T22:40:10.905Z,23.10
2018-08-06T22:42:39.747Z,23.10
2018-08-06T22:45:09.248Z,23.10
2018-08-06T22:47:37.525Z,23.10
2018-08-06T22:50:08.205Z,23.10
2018-08-06T22:52:36.463Z,23.00
2018-08-06T22:55:05.276Z,22.90
2018-08-06T22:57:33.548Z,22.90
2018-08-06T23:00:02.418Z,22.90
2018-08-06T23:02:30.797Z,22.90
2018-08-06T23:04:59.016Z,22.90
2018-08-06T23:07:27.333Z,22.80
2018-08-06T23:09:55.551Z,22.80
2018-08-06T23:12:24.211Z,22.80
2018-08-06T23:14:52.448Z,22.80
2018-08-06T23:17:20.682Z,22.60
2018-08-06T23:19:48.920Z,22.60
2018-08-06T23:22:17.158Z,22.50
2018-08-06T23:24:45.378Z,22.40
2018-08-06T23:27:13.627Z,22.50
2018-08-06T23:29:41.880Z,22.40
2018-08-06T23:32:10.147Z,22.50
2018-08-06T23:34:38.410Z,22.50
2018-08-06T23:37:06.654Z,22.50
2018-08-06T23:39:34.905Z,22.50
2018-08-06T23:42:03.136Z,22.40
2018-08-06T23:44:31.428Z,22.40
2018-08-06T23:46:59.631Z,22.30
2018-08-06T23:49:27.963Z,22.30
2018-08-06T23:51:56.257Z,22.20
2018-08-06T23:54:24.478Z,22.20
2018-08-06T23:56:52.697Z,22.10
2018-08-06T23:59:20.897Z,22.10
